createdAt,value
2022-10-18T00:01:01.481Z,99839.31
2022-10-18T00:03:29.119Z,99821.78
2022-10-18T00:05:56.288Z,99872.66
2022-10-18T00:08:23.538Z,99818.66
2022-10-18T00:10:50.974Z,99910.03
2022-10-18T00:13:18.877Z,99885.78
2022-10-18T00:15:57.392Z,99836.16
2022-10-18T00:18:25.109Z,99811.06
2022-10-18T00:21:06.315Z,99821.63
2022-10-18T00:23:35.100Z,99893.28
2022-10-18T00:26:06.195Z,99861.53
2022-10-18T00:28:35.167Z,99833.66
2022-10-18T00:31:13.910Z,99910.00
2022-10-18T00:33:44.887Z,99788.78
2022-10-18T00:36:12.994Z,99839.22
2022-10-18T00:38:41.080Z,99846.25
2022-10-18T00:41:11.599Z,99882.88
2022-10-18T00:44:04.775Z,99842.47
2022-10-18T00:46:38.636Z,99825.63
2022-10-18T00:49:21.496Z,99846.19
2022-10-18T00:52:19.709Z,99852.38
2022-10-18T00:54:48.777Z,99841.22
2022-10-18T00:57:16.313Z,99846.19
2022-10-18T00:59:44.484Z,99903.94
2022-10-18T01:02:15.051Z,99818.84
2022-10-18T01:04:42.166Z,99830.72
2022-10-18T01:07:37.185Z,99907.53
2022-10-18T01:10:27.764Z,99876.50
2022-10-18T01:13:03.321Z,99894.78
2022-10-18T01:15:48.392Z,99861.50
2022-10-18T01:18:31.950Z,99847.06
2022-10-18T01:21:11.484Z,99842.22
2022-10-18T01:24:15.743Z,99870.22
2022-10-18T01:27:41.320Z,99862.09
2022-10-18T01:30:38.065Z,99862.06
2022-10-18T01:33:21.071Z,99893.16
2022-10-18T01:35:57.409Z,99885.84
2022-10-18T01:38:26.704Z,99845.44
2022-10-18T01:40:56.103Z,99846.63
2022-10-18T01:43:26.540Z,99823.09
2022-10-18T01:45:55.883Z,99823.06
2022-10-18T01:48:23.884Z,99846.41
2022-10-18T01:50:52.703Z,99888.22
2022-10-18T01:53:32.036Z,99866.72
2022-10-18T01:56:16.283Z,99867.47
2022-10-18T01:58:49.088Z,99851.16
2022-10-18T02:01:53.621Z,99917.06
2022-10-18T02:04:57.998Z,99812.53
2022-10-18T02:08:12.201Z,99905.91
2022-10-18T02:11:08.611Z,99858.81
2022-10-18T02:13:49.968Z,99835.19
2022-10-18T02:16:23.065Z,99921.34
2022-10-18T02:18:58.946Z,99865.97
2022-10-18T02:21:28.231Z,99918.66
2022-10-18T02:23:57.931Z,99870.94
2022-10-18T02:26:25.491Z,99897.94
2022-10-18T02:28:52.732Z,99888.44
2022-10-18T02:31:28.452Z,99926.56
2022-10-18T02:34:20.427Z,99919.41
2022-10-18T02:37:08.953Z,99921.81
2022-10-18T02:39:37.694Z,99942.47
2022-10-18T02:42:07.075Z,99909.06
2022-10-18T02:44:35.385Z,99921.75
2022-10-18T02:47:03.407Z,99928.09
2022-10-18T02:49:30.397Z,99939.25
2022-10-18T02:51:57.363Z,99891.44
2022-10-18T02:54:24.436Z,99945.50
2022-10-18T02:56:51.908Z,99945.44
2022-10-18T02:59:19.032Z,99921.22
2022-10-18T03:01:46.280Z,99934.31
2022-10-18T03:04:13.513Z,99909.53
2022-10-18T03:06:40.624Z,99947.00
2022-10-18T03:09:07.918Z,99913.13
2022-10-18T03:11:35.020Z,99956.88
2022-10-18T03:14:02.167Z,99921.56
2022-10-18T03:16:29.084Z,99924.75
2022-10-18T03:18:56.193Z,99928.63
2022-10-18T03:21:23.467Z,99904.56
2022-10-18T03:23:50.672Z,99931.19
2022-10-18T03:26:18.585Z,99954.03
2022-10-18T03:28:45.715Z,99924.28
2022-10-18T03:31:12.689Z,99906.19
2022-10-18T03:33:39.999Z,99961.28
2022-10-18T03:36:07.100Z,99914.97
2022-10-18T03:38:34.404Z,99948.44
2022-10-18T03:41:01.507Z,99900.81
2022-10-18T03:43:28.405Z,99895.00
2022-10-18T03:45:55.545Z,99959.72
2022-10-18T03:48:22.708Z,99952.97
2022-10-18T03:50:49.830Z,99925.81
2022-10-18T03:53:16.780Z,99928.91
2022-10-18T03:55:43.893Z,99973.53
2022-10-18T03:58:10.869Z,99892.84
2022-10-18T04:00:38.123Z,99904.69
2022-10-18T04:03:11.025Z,99931.41
2022-10-18T04:05:38.195Z,99968.16
2022-10-18T04:08:05.525Z,99875.59
2022-10-18T04:10:32.513Z,99947.44
2022-10-18T04:12:59.632Z,99974.09
2022-10-18T04:15:26.609Z,99937.91
2022-10-18T04:17:53.675Z,99925.72
2022-10-18T04:20:20.669Z,99952.31
2022-10-18T04:22:50.022Z,99976.19
2022-10-18T04:25:17.664Z,99976.59
2022-10-18T04:27:45.049Z,99941.53
2022-10-18T04:30:12.216Z,99968.31
2022-10-18T04:32:41.971Z,99973.13
2022-10-18T04:35:10.479Z,99941.94
2022-10-18T04:37:37.701Z,99988.53
2022-10-18T04:40:05.456Z,99977.22
2022-10-18T04:42:32.765Z,99953.22
2022-10-18T04:44:59.705Z,99956.41
2022-10-18T04:47:26.813Z,99974.00
2022-10-18T04:49:53.740Z,99989.97
2022-10-18T04:52:21.026Z,100000.91
2022-10-18T04:54:47.954Z,99950.44
2022-10-18T04:57:15.083Z,99952.38
2022-10-18T04:59:42.185Z,99956.00
2022-10-18T05:02:09.495Z,99970.28
2022-10-18T05:04:36.485Z,99983.84
2022-10-18T05:07:05.893Z,99945.28
2022-10-18T05:09:33.365Z,99959.97
2022-10-18T05:12:00.464Z,99975.13
2022-10-18T05:14:27.648Z,99972.72
2022-10-18T05:16:54.536Z,99963.16
2022-10-18T05:19:21.843Z,100005.75
2022-10-18T05:21:48.778Z,99997.44
2022-10-18T05:24:15.935Z,99975.16
2022-10-18T05:26:42.922Z,99989.00
2022-10-18T05:29:10.161Z,100005.38
2022-10-18T05:31:37.126Z,99996.63
2022-10-18T05:34:04.888Z,99993.47
2022-10-18T05:36:31.894Z,100008.56
2022-10-18T05:39:02.404Z,100033.59
2022-10-18T05:41:31.443Z,100000.22
2022-10-18T05:43:58.754Z,99988.63
2022-10-18T05:46:25.725Z,99989.47
2022-10-18T05:48:53.025Z,100008.59
2022-10-18T05:51:20.020Z,99979.50
2022-10-18T05:53:47.563Z,99952.06
2022-10-18T05:56:14.834Z,99989.03
2022-10-18T05:58:43.118Z,99959.97
2022-10-18T06:01:10.466Z,100006.16
2022-10-18T06:03:37.911Z,100015.72
2022-10-18T06:06:08.666Z,100011.34
2022-10-18T06:08:36.706Z,100033.22
2022-10-18T06:11:16.337Z,100009.38
2022-10-18T06:13:49.833Z,100008.16
2022-10-18T06:16:20.800Z,100030.03
2022-10-18T06:18:53.253Z,100005.41
2022-10-18T06:21:21.216Z,100021.69
2022-10-18T06:23:53.748Z,100016.50
2022-10-18T06:26:21.068Z,100040.78
2022-10-18T06:28:48.113Z,100039.59
2022-10-18T06:31:15.968Z,100026.47
2022-10-18T06:33:43.264Z,100041.97
2022-10-18T06:36:19.829Z,100049.13
2022-10-18T06:38:46.813Z,100054.69
2022-10-18T06:41:14.070Z,100055.06
2022-10-18T06:43:41.350Z,100046.31
2022-10-18T06:46:09.308Z,100080.94
2022-10-18T06:48:38.537Z,100086.53
2022-10-18T06:51:07.601Z,100078.97
2022-10-18T06:53:44.228Z,100076.13
2022-10-18T06:56:20.640Z,100104.75
2022-10-18T06:58:47.624Z,100067.38
2022-10-18T07:01:17.744Z,100092.84
2022-10-18T07:03:46.833Z,100072.94
2022-10-18T07:06:16.669Z,100058.66
2022-10-18T07:08:45.191Z,100062.63
2022-10-18T07:11:21.724Z,100072.19
2022-10-18T07:13:49.005Z,100115.91
2022-10-18T07:16:19.100Z,100085.25
2022-10-18T07:18:51.675Z,100098.34
2022-10-18T07:21:22.509Z,100126.91
2022-10-18T07:23:51.016Z,100095.94
2022-10-18T07:26:31.080Z,100120.63
2022-10-18T07:29:08.843Z,100107.47
2022-10-18T07:31:36.716Z,100100.34
2022-10-18T07:34:10.191Z,100093.53
2022-10-18T07:36:37.332Z,100114.59
2022-10-18T07:39:05.289Z,100126.91
2022-10-18T07:41:35.645Z,100096.63
2022-10-18T07:44:03.673Z,100098.25
2022-10-18T07:46:30.822Z,100130.06
2022-10-18T07:48:59.504Z,100142.69
2022-10-18T07:51:28.072Z,100143.38
2022-10-18T07:53:55.050Z,100143.28
2022-10-18T07:56:22.257Z,100122.59
2022-10-18T07:58:55.374Z,100124.56
2022-10-18T08:01:24.724Z,100138.75
2022-10-18T08:03:52.595Z,100124.78
2022-10-18T08:06:21.851Z,100132.25
2022-10-18T08:08:48.765Z,100126.25
2022-10-18T08:11:19.950Z,100113.50
2022-10-18T08:13:47.491Z,100110.28
2022-10-18T08:16:18.966Z,100111.06
2022-10-18T08:18:46.096Z,100125.88
2022-10-18T08:21:18.075Z,100137.84
2022-10-18T08:23:45.169Z,100131.78
2022-10-18T08:26:19.185Z,100134.69
2022-10-18T08:28:53.942Z,100131.44
2022-10-18T08:31:31.158Z,100141.59
2022-10-18T08:33:58.176Z,100172.72
2022-10-18T08:36:25.647Z,100127.28
2022-10-18T08:38:52.838Z,100125.69
2022-10-18T08:41:54.936Z,100140.75
2022-10-18T08:44:28.736Z,100144.59
2022-10-18T08:47:01.183Z,100148.03
2022-10-18T08:49:50.488Z,100136.13
2022-10-18T08:52:56.026Z,100138.28
2022-10-18T08:56:03.972Z,100172.66
2022-10-18T08:58:33.559Z,100182.66
2022-10-18T09:01:31.257Z,100179.31
2022-10-18T09:04:22.753Z,100198.59
2022-10-18T09:07:13.949Z,100210.16
2022-10-18T09:10:17.181Z,100175.41
2022-10-18T09:13:14.809Z,100205.84
2022-10-18T09:15:58.621Z,100183.00
2022-10-18T09:18:59.583Z,100186.16
2022-10-18T09:21:53.608Z,100144.72
2022-10-18T09:24:44.531Z,100201.03
2022-10-18T09:27:22.281Z,100150.00
2022-10-18T09:29:49.065Z,100199.56
2022-10-18T09:32:31.347Z,100195.47
2022-10-18T09:35:21.692Z,100179.78
2022-10-18T09:37:53.350Z,100178.38
2022-10-18T09:40:29.096Z,100198.31
2022-10-18T09:43:08.174Z,100170.97
2022-10-18T09:45:43.919Z,100202.69
2022-10-18T09:48:29.230Z,100164.97
2022-10-18T09:51:15.062Z,100195.25
2022-10-18T09:54:16.019Z,100197.50
2022-10-18T09:57:02.800Z,100178.34
2022-10-18T09:59:42.851Z,100183.78
2022-10-18T10:02:19.573Z,100201.44
2022-10-18T10:04:46.529Z,100163.41
2022-10-18T10:07:32.559Z,100188.88
2022-10-18T10:10:23.974Z,100185.88
2022-10-18T10:13:23.314Z,100179.88
2022-10-18T10:16:02.948Z,100173.75
2022-10-18T10:18:36.578Z,100193.31
2022-10-18T10:21:13.485Z,100198.84
2022-10-18T10:23:57.732Z,100162.66
2022-10-18T10:26:33.365Z,100178.91
2022-10-18T10:29:00.705Z,100211.41
2022-10-18T10:31:32.569Z,100176.03
2022-10-18T10:34:19.021Z,100166.69
2022-10-18T10:36:54.761Z,100171.03
2022-10-18T10:39:24.650Z,100157.59
2022-10-18T10:41:58.814Z,100128.66
2022-10-18T10:44:30.415Z,100115.91
2022-10-18T10:46:57.968Z,100127.31
2022-10-18T10:49:41.187Z,100178.72
2022-10-18T10:52:27.768Z,100155.63
2022-10-18T10:57:48.750Z,100162.94
2022-10-18T11:00:39.537Z,100137.81
2022-10-18T11:03:33.770Z,100148.63
2022-10-18T11:06:01.861Z,100145.03
2022-10-18T11:08:38.733Z,100182.41
2022-10-18T11:11:41.169Z,100149.38
2022-10-18T11:14:27.078Z,100175.13
2022-10-18T11:17:32.446Z,100140.78
2022-10-18T11:20:02.078Z,100180.47
2022-10-18T11:22:58.766Z,100161.69
2022-10-18T11:25:43.229Z,100159.59
2022-10-18T11:28:57.841Z,100158.72
2022-10-18T11:31:46.532Z,100173.31
2022-10-18T11:34:38.478Z,100152.34
2022-10-18T11:37:58.459Z,100177.25
2022-10-18T11:40:59.326Z,100161.56
2022-10-18T11:44:02.189Z,100131.94
2022-10-18T11:47:08.240Z,100192.56
2022-10-18T11:50:01.686Z,100107.06
2022-10-18T11:53:04.549Z,100152.34
2022-10-18T11:56:15.841Z,100122.56
2022-10-18T11:59:03.125Z,100103.72
2022-10-18T12:01:36.175Z,100118.53
2022-10-18T12:04:14.395Z,100100.84
2022-10-18T12:06:45.670Z,100133.16
2022-10-18T12:09:40.266Z,100102.88
2022-10-18T12:12:27.927Z,100114.53
2022-10-18T12:15:01.843Z,100081.91
2022-10-18T12:17:49.077Z,100129.44
2022-10-18T12:20:24.956Z,100094.75
2022-10-18T12:23:12.546Z,100107.56
2022-10-18T12:25:46.731Z,100108.47
2022-10-18T12:28:30.234Z,100090.16
2022-10-18T12:31:50.703Z,100110.72
2022-10-18T12:34:56.986Z,100111.09
2022-10-18T12:38:06.169Z,100123.34
2022-10-18T12:40:41.369Z,100096.34
2022-10-18T12:43:26.046Z,100093.72
2022-10-18T12:45:57.875Z,100072.88
2022-10-18T12:48:42.384Z,100075.22
2022-10-18T12:51:23.282Z,100079.38
2022-10-18T12:54:12.503Z,100103.09
2022-10-18T12:56:43.145Z,100109.34
2022-10-18T12:59:16.057Z,100063.06
2022-10-18T13:01:54.536Z,100051.16
2022-10-18T13:04:33.731Z,100072.34
2022-10-18T13:07:32.330Z,100047.03
2022-10-18T13:10:12.766Z,100095.00
2022-10-18T13:12:50.049Z,100078.97
2022-10-18T13:15:46.492Z,100033.97
2022-10-18T13:18:48.225Z,100028.28
2022-10-18T13:21:50.052Z,100046.25
2022-10-18T13:24:43.368Z,100047.66
2022-10-18T13:27:35.892Z,99998.84
2022-10-18T13:30:35.573Z,99983.09
2022-10-18T13:33:35.320Z,100047.91
2022-10-18T13:36:22.842Z,100016.00
2022-10-18T13:38:57.712Z,100041.38
2022-10-18T13:41:34.543Z,100021.28
2022-10-18T13:44:40.419Z,100015.78
2022-10-18T13:47:07.240Z,100033.75
2022-10-18T13:49:59.299Z,100038.66
2022-10-18T13:52:54.613Z,100005.34
2022-10-18T13:56:01.228Z,100012.91
2022-10-18T13:59:15.135Z,100042.72
2022-10-18T14:01:59.735Z,99992.28
2022-10-18T14:05:23.676Z,100025.22
2022-10-18T14:07:58.424Z,100024.69
2022-10-18T14:11:02.489Z,100017.25
2022-10-18T14:14:36.619Z,99985.34
2022-10-18T14:18:00.877Z,100022.66
2022-10-18T14:21:12.405Z,100019.25
2022-10-18T14:23:44.754Z,100001.38
2022-10-18T14:26:21.039Z,100025.19
2022-10-18T14:29:07.107Z,100030.53
2022-10-18T14:31:35.095Z,100097.19
2022-10-18T14:34:03.302Z,100050.25
2022-10-18T14:36:42.216Z,100042.44
2022-10-18T14:39:21.595Z,100071.03
2022-10-18T14:41:58.001Z,100003.16
2022-10-18T14:44:28.931Z,99991.31
2022-10-18T14:46:55.736Z,99970.63
2022-10-18T14:49:23.071Z,100017.13
2022-10-18T14:51:53.822Z,99978.66
2022-10-18T14:54:31.949Z,100023.53
2022-10-18T14:57:02.501Z,100034.97
2022-10-18T14:59:36.868Z,100014.75
2022-10-18T15:02:23.833Z,100014.72
2022-10-18T15:05:16.493Z,99986.22
2022-10-18T15:07:44.846Z,99949.63
2022-10-18T15:10:25.851Z,100001.69
2022-10-18T15:13:10.940Z,99994.38
2022-10-18T15:15:39.543Z,99966.22
2022-10-18T15:18:08.192Z,99957.03
2022-10-18T15:20:42.521Z,99993.22
2022-10-18T15:23:31.409Z,99990.47
2022-10-18T15:26:29.441Z,99936.75
2022-10-18T15:29:01.505Z,99951.50
2022-10-18T15:31:34.638Z,99901.44
2022-10-18T15:34:26.189Z,99982.59
2022-10-18T15:36:57.308Z,99919.00
2022-10-18T15:39:27.798Z,99974.78
2022-10-18T15:42:03.120Z,99961.31
2022-10-18T15:44:35.128Z,99898.06
2022-10-18T15:47:20.306Z,99880.88
2022-10-18T15:49:51.130Z,99905.53
2022-10-18T15:52:39.454Z,99930.28
2022-10-18T15:55:31.517Z,99865.66
2022-10-18T15:58:15.989Z,99909.25
2022-10-18T16:00:45.054Z,99950.56
2022-10-18T16:03:12.605Z,99933.00
2022-10-18T16:05:40.043Z,99932.09
2022-10-18T16:08:16.428Z,99872.63
2022-10-18T16:10:43.351Z,99887.69
2022-10-18T16:13:10.473Z,99915.34
2022-10-18T16:15:40.988Z,99914.16
2022-10-18T16:18:18.044Z,99882.50
2022-10-18T16:20:46.112Z,99840.91
2022-10-18T16:23:29.332Z,99852.41
2022-10-18T16:25:56.421Z,99890.13
2022-10-18T16:28:25.622Z,99843.88
2022-10-18T16:31:00.360Z,99864.09
2022-10-18T16:33:27.434Z,99856.38
2022-10-18T16:35:54.927Z,99851.06
2022-10-18T16:38:42.826Z,99873.19
2022-10-18T16:41:10.849Z,99864.25
2022-10-18T16:43:38.577Z,99879.25
2022-10-18T16:46:07.866Z,99824.81
2022-10-18T16:48:35.273Z,99848.25
2022-10-18T16:51:02.406Z,99829.56
2022-10-18T16:53:29.741Z,99881.13
2022-10-18T16:56:00.805Z,99873.50
2022-10-18T16:58:29.980Z,99847.91
2022-10-18T17:00:57.927Z,99833.31
2022-10-18T17:03:26.224Z,99870.44
2022-10-18T17:05:54.164Z,99846.25
2022-10-18T17:08:25.122Z,99855.81
2022-10-18T17:10:56.390Z,99853.94
2022-10-18T17:13:24.821Z,99844.06
2022-10-18T17:15:52.889Z,99800.88
2022-10-18T17:18:26.288Z,99867.81
2022-10-18T17:20:53.676Z,99860.56
2022-10-18T17:23:20.656Z,99851.53
2022-10-18T17:25:59.117Z,99869.91
2022-10-18T17:28:34.928Z,99910.34
2022-10-18T17:31:01.897Z,99850.19
2022-10-18T17:33:29.188Z,99886.34
2022-10-18T17:35:56.118Z,99860.63
2022-10-18T17:38:23.047Z,99826.75
2022-10-18T17:40:52.717Z,99888.69
2022-10-18T17:43:19.998Z,99899.81
2022-10-18T17:45:55.463Z,99840.16
2022-10-18T17:48:24.495Z,99872.69
2022-10-18T17:50:51.526Z,99870.31
2022-10-18T17:53:22.744Z,99861.06
2022-10-18T17:55:49.740Z,99870.63
2022-10-18T17:58:17.046Z,99850.56
2022-10-18T18:00:44.052Z,99824.81
2022-10-18T18:03:11.089Z,99882.75
2022-10-18T18:05:38.025Z,99850.34
2022-10-18T18:08:05.317Z,99877.50
2022-10-18T18:10:33.845Z,99869.50
2022-10-18T18:13:01.714Z,99895.03
2022-10-18T18:15:47.590Z,99875.13
2022-10-18T18:18:14.668Z,99853.19
2022-10-18T18:20:41.567Z,99914.97
2022-10-18T18:23:08.512Z,99906.69
2022-10-18T18:25:35.432Z,99892.75
2022-10-18T18:28:05.226Z,99857.03
2022-10-18T18:30:34.412Z,99835.09
2022-10-18T18:33:01.634Z,99862.13
2022-10-18T18:35:28.534Z,99817.28
2022-10-18T18:37:55.544Z,99859.75
2022-10-18T18:40:24.009Z,99823.16
2022-10-18T18:43:07.317Z,99882.50
2022-10-18T18:45:38.400Z,99853.34
2022-10-18T18:48:05.821Z,99872.34
2022-10-18T18:50:35.052Z,99893.66
2022-10-18T18:53:02.186Z,99819.19
2022-10-18T18:55:31.198Z,99889.84
2022-10-18T18:57:58.424Z,99858.47
2022-10-18T19:00:25.560Z,99886.81
2022-10-18T19:02:52.517Z,99866.50
2022-10-18T19:05:19.780Z,99908.91
2022-10-18T19:07:46.722Z,99842.34
2022-10-18T19:10:13.724Z,99888.41
2022-10-18T19:12:40.720Z,99890.03
2022-10-18T19:15:08.305Z,99873.72
2022-10-18T19:17:35.541Z,99854.34
2022-10-18T19:20:04.997Z,99857.19
2022-10-18T19:22:31.974Z,99891.72
2022-10-18T19:24:58.909Z,99895.25
2022-10-18T19:27:25.894Z,99864.69
2022-10-18T19:29:52.873Z,99875.06
2022-10-18T19:32:20.291Z,99869.53
2022-10-18T19:34:47.241Z,99894.94
2022-10-18T19:37:15.897Z,99847.66
2022-10-18T19:39:42.940Z,99879.84
2022-10-18T19:42:17.438Z,99900.91
2022-10-18T19:44:48.022Z,99851.22
2022-10-18T19:47:15.319Z,99885.78
2022-10-18T19:49:46.242Z,99870.66
2022-10-18T19:52:13.523Z,99914.78
2022-10-18T19:54:40.624Z,99823.41
2022-10-18T19:57:07.662Z,99902.06
2022-10-18T19:59:36.012Z,99896.16
2022-10-18T20:02:04.727Z,99913.19
2022-10-18T20:04:34.674Z,99900.50
2022-10-18T20:07:02.799Z,99830.19
2022-10-18T20:09:30.048Z,99908.44
2022-10-18T20:11:57.101Z,99910.44
2022-10-18T20:14:24.139Z,99866.66
2022-10-18T20:16:51.366Z,99820.16
2022-10-18T20:19:18.409Z,99867.81
2022-10-18T20:21:45.529Z,99843.19
2022-10-18T20:24:12.587Z,99831.56
2022-10-18T20:26:39.903Z,99870.94
2022-10-18T20:29:07.864Z,99908.78
2022-10-18T20:31:38.326Z,99882.16
2022-10-18T20:34:13.711Z,99888.53
2022-10-18T20:36:40.979Z,99876.41
2022-10-18T20:39:09.483Z,99820.75
2022-10-18T20:41:40.992Z,99884.59
2022-10-18T20:44:13.407Z,99913.75
2022-10-18T20:46:41.500Z,99922.63
2022-10-18T20:49:12.581Z,99841.97
2022-10-18T20:51:39.895Z,99898.41
2022-10-18T20:54:09.537Z,99880.38
2022-10-18T20:56:38.712Z,99874.00
2022-10-18T20:59:09.437Z,99878.34
2022-10-18T21:01:38.337Z,99938.47
2022-10-18T21:04:08.441Z,99905.91
2022-10-18T21:06:42.211Z,99893.16
2022-10-18T21:09:18.953Z,99861.78
2022-10-18T21:11:50.197Z,99865.00
2022-10-18T21:14:23.384Z,99906.00
2022-10-18T21:16:52.186Z,99905.69
2022-10-18T21:19:26.233Z,99866.03
2022-10-18T21:21:56.328Z,99830.22
2022-10-18T21:24:25.171Z,99909.97
2022-10-18T21:26:52.436Z,99922.69
2022-10-18T21:29:22.228Z,99874.75
2022-10-18T21:31:53.777Z,99870.75
2022-10-18T21:34:21.052Z,99909.88
2022-10-18T21:36:49.003Z,99868.44
2022-10-18T21:39:20.113Z,99849.78
2022-10-18T21:41:47.833Z,99855.69
2022-10-18T21:44:15.890Z,99892.38
2022-10-18T21:46:43.322Z,99840.25
2022-10-18T21:49:10.831Z,99911.06
2022-10-18T21:51:38.514Z,99925.44
2022-10-18T21:54:10.804Z,99905.34
2022-10-18T21:56:37.814Z,99835.44
2022-10-18T21:59:05.442Z,99846.63
2022-10-18T22:01:38.400Z,99852.41
2022-10-18T22:04:25.219Z,99799.00
2022-10-18T22:06:52.892Z,99856.97
2022-10-18T22:09:21.439Z,99873.50
2022-10-18T22:11:52.607Z,99828.25
2022-10-18T22:14:20.423Z,99839.19
2022-10-18T22:16:47.960Z,99840.00
2022-10-18T22:19:14.943Z,99867.91
2022-10-18T22:21:42.212Z,99899.13
2022-10-18T22:24:10.235Z,99807.34
2022-10-18T22:26:40.965Z,99847.72
2022-10-18T22:29:14.878Z,99846.97
2022-10-18T22:31:46.539Z,99840.50
2022-10-18T22:34:21.416Z,99901.00
2022-10-18T22:36:48.716Z,99911.13
2022-10-18T22:39:16.861Z,99809.94
2022-10-18T22:41:44.713Z,99851.88
2022-10-18T22:44:13.987Z,99852.84
2022-10-18T22:46:42.257Z,99836.91
2022-10-18T22:49:09.357Z,99791.53
2022-10-18T22:51:36.517Z,99899.06
2022-10-18T22:54:03.874Z,99814.19
2022-10-18T22:56:30.848Z,99826.22
2022-10-18T22:58:58.034Z,99812.44
2022-10-18T23:01:25.639Z,99824.16
2022-10-18T23:03:57.785Z,99809.31
2022-10-18T23:06:32.794Z,99797.75
2022-10-18T23:09:04.922Z,99790.03
2022-10-18T23:11:32.860Z,99841.78
2022-10-18T23:14:00.768Z,99798.00
2022-10-18T23:16:29.620Z,99810.97
2022-10-18T23:18:58.185Z,99828.53
2022-10-18T23:21:28.261Z,99833.47
2022-10-18T23:23:56.573Z,99864.94
2022-10-18T23:26:26.370Z,99783.69
2022-10-18T23:28:54.687Z,99787.34
2022-10-18T23:31:28.360Z,99748.72
2022-10-18T23:33:57.858Z,99771.69
2022-10-18T23:36:25.322Z,99778.47
2022-10-18T23:38:52.536Z,99751.28
2022-10-18T23:41:20.241Z,99803.78
2022-10-18T23:43:47.606Z,99753.47
2022-10-18T23:46:16.430Z,99790.88
2022-10-18T23:48:44.200Z,99824.38
2022-10-18T23:51:11.265Z,99768.41
2022-10-18T23:53:38.897Z,99783.25
2022-10-18T23:56:10.758Z,99719.63
2022-10-18T23:58:39.159Z,99745.28
